Time;durP1;ratioP1;P1;durP2;ratioP2;P2;SDS_P1;SDS_P2;PMS_P1;PMS_P2;Temp;Humidity;BMP_temperature;BMP_pressure;BME280_temperature;BME280_humidity;BME280_pressure;Samples;Min_cycle;Max_cycle;Signal;HPM_P1;HPM_P2
2023/07/04 00:01:04;;;;;;;6.72;3.70;;;;;;;;;;4969950;28;20042;-76
2023/07/04 00:03:30;;;;;;;6.63;3.83;;;;;;;;;;4977620;28;20655;-76
2023/07/04 00:05:56;;;;;;;6.43;3.38;;;;;;;;;;4973520;28;20114;-76
2023/07/04 00:08:23;;;;;;;6.75;3.75;;;;;;;;;;4969843;28;20041;-76
2023/07/04 00:10:50;;;;;;;7.38;3.53;;;;;;;;;;4974668;28;20544;-77
2023/07/04 00:13:17;;;;;;;5.95;3.35;;;;;;;;;;4972971;28;20387;-77
2023/07/04 00:15:50;;;;;;;8.15;3.75;;;;;;;;;;4973285;28;20411;-77
2023/07/04 00:18:20;;;;;;;7.63;3.47;;;;;;;;;;4972579;28;20018;-78
2023/07/04 00:20:55;;;;;;;4.43;3.00;;;;;;;;;;4969226;28;20027;-76
2023/07/04 00:23:33;;;;;;;5.43;2.95;;;;;;;;;;4974992;28;20031;-77
2023/07/04 00:25:59;;;;;;;6.85;3.80;;;;;;;;;;4967855;28;20029;-76
2023/07/04 00:28:25;;;;;;;7.40;3.38;;;;;;;;;;4975536;28;20038;-77
2023/07/04 00:30:52;;;;;;;7.78;4.03;;;;;;;;;;4974126;28;20446;-76
2023/07/04 00:33:22;;;;;;;6.10;3.33;;;;;;;;;;4971034;28;20501;-76
2023/07/04 00:35:48;;;;;;;9.90;4.57;;;;;;;;;;4974788;28;20034;-76
2023/07/04 00:38:15;;;;;;;6.57;3.60;;;;;;;;;;4973579;28;20038;-77
2023/07/04 00:40:40;;;;;;;8.07;3.70;;;;;;;;;;4971106;28;20026;-78
2023/07/04 00:43:10;;;;;;;5.95;3.30;;;;;;;;;;4967116;28;20369;-77
2023/07/04 00:45:42;;;;;;;9.43;3.63;;;;;;;;;;4971646;28;20046;-77
2023/07/04 00:48:11;;;;;;;5.80;3.10;;;;;;;;;;4970197;28;20106;-77
2023/07/04 00:50:45;;;;;;;8.40;3.90;;;;;;;;;;4970178;28;20511;-77
2023/07/04 00:53:12;;;;;;;6.70;3.28;;;;;;;;;;4975818;28;20078;-77
2023/07/04 00:55:43;;;;;;;5.45;3.00;;;;;;;;;;4971291;28;20034;-77
2023/07/04 00:58:09;;;;;;;5.57;3.28;;;;;;;;;;4969404;28;20022;-77
2023/07/04 01:00:37;;;;;;;7.40;3.75;;;;;;;;;;4974623;28;20113;-77
2023/07/04 01:03:20;;;;;;;9.05;3.78;;;;;;;;;;4969470;28;20019;-77
2023/07/04 01:06:13;;;;;;;7.63;3.88;;;;;;;;;;4971732;28;20018;-76
2023/07/04 01:08:44;;;;;;;4.95;2.95;;;;;;;;;;4971988;28;20439;-76
2023/07/04 01:11:19;;;;;;;6.55;4.05;;;;;;;;;;4973958;28;20030;-76
2023/07/04 01:13:45;;;;;;;8.02;3.60;;;;;;;;;;4990149;28;20077;-77
2023/07/04 01:16:14;;;;;;;6.47;3.13;;;;;;;;;;4973121;28;20095;-77
2023/07/04 01:18:46;;;;;;;6.80;3.33;;;;;;;;;;4969462;28;20029;-77
2023/07/04 01:21:13;;;;;;;6.70;3.33;;;;;;;;;;4967184;28;20061;-77
2023/07/04 01:24:00;;;;;;;10.20;4.18;;;;;;;;;;4970167;28;20026;-77
2023/07/04 01:26:31;;;;;;;5.40;3.53;;;;;;;;;;4971480;28;20022;-77
2023/07/04 01:28:58;;;;;;;4.72;3.17;;;;;;;;;;4972139;28;20061;-77
2023/07/04 01:31:26;;;;;;;6.40;3.75;;;;;;;;;;4974677;28;20094;-77
2023/07/04 01:33:53;;;;;;;4.00;2.53;;;;;;;;;;4978285;28;20422;-77
2023/07/04 01:36:24;;;;;;;7.65;3.10;;;;;;;;;;4975278;28;20466;-78
2023/07/04 01:38:50;;;;;;;9.90;4.32;;;;;;;;;;4976400;28;20054;-77
2023/07/04 01:41:15;;;;;;;7.07;3.35;;;;;;;;;;4973752;28;20058;-77
2023/07/04 01:43:44;;;;;;;9.15;3.97;;;;;;;;;;4966464;28;20038;-77
2023/07/04 01:46:09;;;;;;;6.00;3.00;;;;;;;;;;4971422;28;20033;-77
2023/07/04 01:48:35;;;;;;;9.38;4.22;;;;;;;;;;4975202;28;20031;-77
2023/07/04 01:51:00;;;;;;;8.32;4.43;;;;;;;;;;4971916;28;20034;-77
2023/07/04 01:53:25;;;;;;;5.55;3.10;;;;;;;;;;4971166;28;20048;-77
2023/07/04 01:55:51;;;;;;;6.88;3.35;;;;;;;;;;4974136;28;20467;-77
2023/07/04 01:58:16;;;;;;;4.22;2.47;;;;;;;;;;4972800;28;20109;-77
2023/07/04 02:00:42;;;;;;;7.57;3.80;;;;;;;;;;4976973;28;20041;-77
2023/07/04 02:03:07;;;;;;;7.75;3.80;;;;;;;;;;4971002;28;20129;-77
2023/07/04 02:05:33;;;;;;;8.75;4.00;;;;;;;;;;4975746;28;20022;-76
2023/07/04 02:07:58;;;;;;;7.82;3.63;;;;;;;;;;4979009;28;20030;-76
2023/07/04 02:10:24;;;;;;;6.18;3.95;;;;;;;;;;4974192;28;20538;-76
2023/07/04 02:12:50;;;;;;;5.60;2.80;;;;;;;;;;4979259;28;20027;-76
2023/07/04 02:15:15;;;;;;;4.97;2.78;;;;;;;;;;4972932;28;20022;-76
2023/07/04 02:17:40;;;;;;;8.88;4.30;;;;;;;;;;4979075;28;20491;-76
2023/07/04 02:20:06;;;;;;;6.45;3.25;;;;;;;;;;4972731;28;20664;-75
2023/07/04 02:22:33;;;;;;;8.23;4.00;;;;;;;;;;4975428;28;20031;-76
2023/07/04 02:24:58;;;;;;;5.95;3.47;;;;;;;;;;4971307;28;20368;-76
2023/07/04 02:27:24;;;;;;;6.10;3.25;;;;;;;;;;4972640;28;20503;-76
2023/07/04 02:29:50;;;;;;;9.10;3.30;;;;;;;;;;4971933;28;20052;-76
2023/07/04 02:32:15;;;;;;;4.28;2.70;;;;;;;;;;4973415;28;20023;-76
2023/07/04 02:34:41;;;;;;;4.97;3.42;;;;;;;;;;4973636;28;20147;-76
2023/07/04 02:37:06;;;;;;;7.80;2.90;;;;;;;;;;4969478;28;20042;-75
2023/07/04 02:39:32;;;;;;;6.50;2.88;;;;;;;;;;4991244;28;20038;-76
2023/07/04 02:41:57;;;;;;;4.90;2.58;;;;;;;;;;4972354;28;20035;-76
2023/07/04 02:44:22;;;;;;;5.40;3.30;;;;;;;;;;4975557;28;20034;-76
2023/07/04 02:46:48;;;;;;;6.57;3.17;;;;;;;;;;4973233;28;20060;-76
2023/07/04 02:49:13;;;;;;;9.38;3.70;;;;;;;;;;4971099;28;20399;-76
2023/07/04 02:51:39;;;;;;;6.90;3.50;;;;;;;;;;4974735;28;20019;-76
2023/07/04 02:54:04;;;;;;;8.20;3.53;;;;;;;;;;4975426;28;20030;-76
2023/07/04 02:56:31;;;;;;;7.53;3.28;;;;;;;;;;4975207;28;20043;-76
2023/07/04 02:58:57;;;;;;;10.32;4.05;;;;;;;;;;4969685;28;20153;-77
2023/07/04 03:01:23;;;;;;;7.70;3.70;;;;;;;;;;4972027;28;20549;-76
2023/07/04 03:03:48;;;;;;;8.45;3.30;;;;;;;;;;4973718;28;20034;-77
2023/07/04 03:06:13;;;;;;;6.55;3.00;;;;;;;;;;4976682;28;20033;-76
2023/07/04 03:08:39;;;;;;;6.43;3.10;;;;;;;;;;4977070;28;20053;-76
2023/07/04 03:11:04;;;;;;;7.07;3.10;;;;;;;;;;4970403;28;20110;-76
2023/07/04 03:13:31;;;;;;;4.07;2.58;;;;;;;;;;4979192;28;20019;-77
2023/07/04 03:15:56;;;;;;;7.63;3.10;;;;;;;;;;4973987;28;20117;-76
2023/07/04 03:18:22;;;;;;;7.45;3.17;;;;;;;;;;4975561;28;20079;-76
2023/07/04 03:20:47;;;;;;;5.75;3.08;;;;;;;;;;4968205;28;20046;-76
2023/07/04 03:23:13;;;;;;;7.93;3.10;;;;;;;;;;4973480;28;20033;-76
2023/07/04 03:25:38;;;;;;;5.32;2.58;;;;;;;;;;4977118;28;20026;-76
2023/07/04 03:28:04;;;;;;;6.97;2.85;;;;;;;;;;4975819;28;20424;-76
2023/07/04 03:30:29;;;;;;;9.10;3.13;;;;;;;;;;4977449;28;20038;-76
2023/07/04 03:32:54;;;;;;;6.55;2.80;;;;;;;;;;4984779;28;20031;-76
2023/07/04 03:35:20;;;;;;;11.13;3.17;;;;;;;;;;4978910;28;20030;-76
2023/07/04 03:37:45;;;;;;;5.70;3.42;;;;;;;;;;4993950;28;20387;-76
2023/07/04 03:40:11;;;;;;;5.45;2.50;;;;;;;;;;4973775;28;20038;-76
2023/07/04 03:42:38;;;;;;;7.28;3.20;;;;;;;;;;4969013;28;20023;-76
2023/07/04 03:45:06;;;;;;;6.28;3.17;;;;;;;;;;4969576;28;20037;-76
2023/07/04 03:47:32;;;;;;;5.70;2.97;;;;;;;;;;4967521;28;20027;-75
2023/07/04 03:49:57;;;;;;;6.25;3.00;;;;;;;;;;4971482;28;20073;-75
2023/07/04 03:52:23;;;;;;;3.67;2.40;;;;;;;;;;4972766;28;20077;-76
2023/07/04 03:54:48;;;;;;;7.47;2.97;;;;;;;;;;4966344;28;20483;-75
2023/07/04 03:57:14;;;;;;;6.93;2.90;;;;;;;;;;4974181;28;20025;-75
2023/07/04 03:59:39;;;;;;;8.93;3.40;;;;;;;;;;4979972;28;20449;-75
2023/07/04 04:02:05;;;;;;;6.25;2.90;;;;;;;;;;4972201;28;20030;-75
2023/07/04 04:04:36;;;;;;;6.55;3.05;;;;;;;;;;4966441;28;20030;-75
2023/07/04 04:07:02;;;;;;;9.48;3.42;;;;;;;;;;4970874;28;20035;-75
2023/07/04 04:09:27;;;;;;;12.40;3.45;;;;;;;;;;4974656;28;20038;-75
2023/07/04 04:11:52;;;;;;;8.20;3.10;;;;;;;;;;4973487;28;20030;-75
2023/07/04 04:14:18;;;;;;;7.07;3.15;;;;;;;;;;4972016;28;20027;-75
2023/07/04 04:16:43;;;;;;;8.38;3.08;;;;;;;;;;4971956;28;20113;-76
2023/07/04 04:19:09;;;;;;;8.38;2.92;;;;;;;;;;4975375;28;20513;-75
2023/07/04 04:21:34;;;;;;;4.95;2.88;;;;;;;;;;4969422;28;20069;-75
2023/07/04 04:24:00;;;;;;;7.25;2.75;;;;;;;;;;4970273;28;20023;-75
2023/07/04 04:26:25;;;;;;;6.47;3.13;;;;;;;;;;4965366;28;20114;-75
2023/07/04 04:28:51;;;;;;;6.75;3.00;;;;;;;;;;4968437;28;20041;-75
2023/07/04 04:31:17;;;;;;;6.50;3.10;;;;;;;;;;4972382;28;20034;-75
2023/07/04 04:33:42;;;;;;;8.70;2.83;;;;;;;;;;4970391;28;20030;-75
2023/07/04 04:36:08;;;;;;;6.32;2.58;;;;;;;;;;4973229;28;20026;-76
2023/07/04 04:38:36;;;;;;;9.70;3.10;;;;;;;;;;4970272;28;20035;-75
2023/07/04 04:41:05;;;;;;;5.43;2.92;;;;;;;;;;4970561;28;20022;-75
2023/07/04 04:43:34;;;;;;;7.20;3.80;;;;;;;;;;4973945;28;20030;-76
2023/07/04 04:46:00;;;;;;;6.60;2.90;;;;;;;;;;4972785;28;20031;-76
2023/07/04 04:48:29;;;;;;;5.47;3.13;;;;;;;;;;4970480;28;20070;-76
2023/07/04 04:51:07;;;;;;;5.97;2.88;;;;;;;;;;4969888;28;20555;-75
2023/07/04 04:53:35;;;;;;;7.28;3.63;;;;;;;;;;4970757;28;20038;-75
2023/07/04 04:56:01;;;;;;;6.90;2.97;;;;;;;;;;4970496;28;20519;-76
2023/07/04 04:58:27;;;;;;;7.88;2.95;;;;;;;;;;4970235;28;20038;-76
2023/07/04 05:00:52;;;;;;;8.65;3.47;;;;;;;;;;4966013;28;20470;-75
2023/07/04 05:03:17;;;;;;;6.32;3.08;;;;;;;;;;4970186;28;20033;-75
2023/07/04 05:05:43;;;;;;;8.13;3.22;;;;;;;;;;4969626;28;20035;-78
2023/07/04 05:08:08;;;;;;;3.17;2.15;;;;;;;;;;4970494;28;20030;-76
2023/07/04 05:10:33;;;;;;;7.43;3.10;;;;;;;;;;4968116;28;20046;-76
2023/07/04 05:12:59;;;;;;;8.48;3.20;;;;;;;;;;4970184;28;20023;-76
2023/07/04 05:15:24;;;;;;;6.57;2.67;;;;;;;;;;4967580;28;20093;-76
2023/07/04 05:17:50;;;;;;;5.57;3.00;;;;;;;;;;4970464;28;20479;-75
2023/07/04 05:20:22;;;;;;;6.05;2.78;;;;;;;;;;4970908;28;20035;-75
2023/07/04 05:22:48;;;;;;;8.07;3.25;;;;;;;;;;4967715;28;20026;-74
2023/07/04 05:25:14;;;;;;;6.70;2.83;;;;;;;;;;4974941;28;20415;-75
2023/07/04 05:27:39;;;;;;;6.82;2.60;;;;;;;;;;4978330;28;20706;-75
2023/07/04 05:30:05;;;;;;;3.95;2.38;;;;;;;;;;4978196;28;20030;-75
2023/07/04 05:32:30;;;;;;;8.77;3.13;;;;;;;;;;4972375;28;20089;-74
2023/07/04 05:34:56;;;;;;;5.88;2.42;;;;;;;;;;4968859;28;20029;-74
2023/07/04 05:37:21;;;;;;;8.55;2.97;;;;;;;;;;4973266;28;20048;-74
2023/07/04 05:39:47;;;;;;;7.30;2.80;;;;;;;;;;4974318;28;20026;-74
2023/07/04 05:42:12;;;;;;;8.52;3.17;;;;;;;;;;4969044;28;20022;-74
2023/07/04 05:44:37;;;;;;;6.60;2.75;;;;;;;;;;4968636;28;20038;-74
2023/07/04 05:47:03;;;;;;;8.90;2.67;;;;;;;;;;4972384;28;20037;-74
2023/07/04 05:49:28;;;;;;;5.28;2.50;;;;;;;;;;4969332;28;20031;-74
2023/07/04 05:51:54;;;;;;;9.05;3.28;;;;;;;;;;4972613;28;20499;-74
2023/07/04 05:54:19;;;;;;;6.00;2.78;;;;;;;;;;4968651;28;20125;-74
2023/07/04 05:56:51;;;;;;;4.90;2.63;;;;;;;;;;4967269;28;20030;-74
2023/07/04 05:59:16;;;;;;;7.03;2.85;;;;;;;;;;4972067;28;20034;-74
2023/07/04 06:01:45;;;;;;;6.05;2.55;;;;;;;;;;4990479;28;20043;-74
2023/07/04 06:04:11;;;;;;;7.72;2.90;;;;;;;;;;4963473;28;20110;-74
2023/07/04 06:06:38;;;;;;;5.97;2.47;;;;;;;;;;4954352;28;20034;-74
2023/07/04 06:09:08;;;;;;;9.93;2.85;;;;;;;;;;4965171;28;20077;-74
2023/07/04 06:11:35;;;;;;;5.82;2.50;;;;;;;;;;4967268;28;20479;-74
2023/07/04 06:14:02;;;;;;;4.90;2.50;;;;;;;;;;4967380;28;20025;-74
2023/07/04 06:16:28;;;;;;;6.03;2.50;;;;;;;;;;4970669;28;20038;-74
2023/07/04 06:18:53;;;;;;;6.38;2.70;;;;;;;;;;4973214;28;20056;-73
2023/07/04 06:21:21;;;;;;;5.85;2.42;;;;;;;;;;4972258;28;20034;-73
2023/07/04 06:23:47;;;;;;;5.25;2.65;;;;;;;;;;4967877;28;20049;-73
2023/07/04 06:26:13;;;;;;;4.25;2.38;;;;;;;;;;4971826;28;20479;-73
2023/07/04 06:28:41;;;;;;;6.20;2.60;;;;;;;;;;4967238;28;20042;-73
2023/07/04 06:31:10;;;;;;;3.65;2.17;;;;;;;;;;4989662;28;20037;-73
2023/07/04 06:33:35;;;;;;;6.20;2.75;;;;;;;;;;4968791;28;20071;-73
2023/07/04 06:36:01;;;;;;;4.20;2.03;;;;;;;;;;4967584;28;20018;-73
2023/07/04 06:38:27;;;;;;;5.47;2.50;;;;;;;;;;4970230;28;20722;-73
2023/07/04 06:41:01;;;;;;;3.50;2.10;;;;;;;;;;4968353;28;20049;-73
2023/07/04 06:43:29;;;;;;;8.48;2.72;;;;;;;;;;4973293;28;20062;-73
2023/07/04 06:45:55;;;;;;;5.75;2.45;;;;;;;;;;4965464;28;20041;-73
2023/07/04 06:48:22;;;;;;;4.78;2.20;;;;;;;;;;4963697;28;20031;-73
2023/07/04 06:50:57;;;;;;;4.25;2.00;;;;;;;;;;4972983;28;20026;-73
2023/07/04 06:53:23;;;;;;;5.05;1.88;;;;;;;;;;4972782;28;20029;-73
2023/07/04 06:55:48;;;;;;;7.28;3.00;;;;;;;;;;4985375;28;20022;-73
2023/07/04 06:58:15;;;;;;;6.53;2.40;;;;;;;;;;4967756;28;20506;-73
2023/07/04 07:00:41;;;;;;;8.00;2.20;;;;;;;;;;4970091;28;20105;-73
2023/07/04 07:03:06;;;;;;;7.03;2.70;;;;;;;;;;4971177;28;20482;-73
2023/07/04 07:05:31;;;;;;;8.07;2.65;;;;;;;;;;4970459;28;20038;-73
2023/07/04 07:07:57;;;;;;;4.95;2.13;;;;;;;;;;4973046;28;20035;-73
2023/07/04 07:10:22;;;;;;;3.97;2.03;;;;;;;;;;4969761;28;20121;-73
2023/07/04 07:12:47;;;;;;;4.10;2.05;;;;;;;;;;4967113;28;20590;-74
2023/07/04 07:15:13;;;;;;;5.47;1.83;;;;;;;;;;4967967;28;20027;-73
2023/07/04 07:17:39;;;;;;;2.92;1.75;;;;;;;;;;4966658;28;20121;-73
2023/07/04 07:20:05;;;;;;;6.82;2.30;;;;;;;;;;4968470;28;20031;-73
2023/07/04 07:22:30;;;;;;;3.83;1.80;;;;;;;;;;4983700;28;20518;-74
2023/07/04 07:24:55;;;;;;;3.53;2.10;;;;;;;;;;4968427;28;20450;-73
2023/07/04 07:27:21;;;;;;;10.27;2.28;;;;;;;;;;4965876;28;20031;-72
2023/07/04 07:29:47;;;;;;;9.40;2.42;;;;;;;;;;4964491;28;20027;-73
2023/07/04 07:32:13;;;;;;;5.55;2.58;;;;;;;;;;4967381;28;20027;-73
2023/07/04 07:34:38;;;;;;;4.97;2.10;;;;;;;;;;4966718;28;20034;-73
2023/07/04 07:37:04;;;;;;;3.17;1.75;;;;;;;;;;4982053;28;20077;-72
2023/07/04 07:39:29;;;;;;;6.53;1.88;;;;;;;;;;4967360;28;20522;-72
2023/07/04 07:41:55;;;;;;;4.18;1.95;;;;;;;;;;4967613;28;20054;-73
2023/07/04 07:44:20;;;;;;;4.28;2.15;;;;;;;;;;4967647;28;20027;-73
2023/07/04 07:46:46;;;;;;;2.85;1.70;;;;;;;;;;4968017;28;20027;-72
2023/07/04 07:49:11;;;;;;;5.05;1.90;;;;;;;;;;4960991;28;20065;-72
2023/07/04 07:51:37;;;;;;;5.55;2.05;;;;;;;;;;4965499;28;20022;-73
2023/07/04 07:54:03;;;;;;;4.50;2.20;;;;;;;;;;4966208;28;20106;-73
2023/07/04 07:56:32;;;;;;;4.18;1.88;;;;;;;;;;4966341;28;20498;-73
2023/07/04 07:58:58;;;;;;;3.78;1.90;;;;;;;;;;4964356;28;20037;-73
2023/07/04 08:01:28;;;;;;;3.72;2.05;;;;;;;;;;4966930;28;20034;-73
2023/07/04 08:03:54;;;;;;;7.30;2.47;;;;;;;;;;4966774;28;20627;-73
2023/07/04 08:06:43;;;;;;;6.07;2.08;;;;;;;;;;4967331;28;20392;-73
2023/07/04 08:09:11;;;;;;;3.10;1.85;;;;;;;;;;4968725;28;20066;-73
2023/07/04 08:11:38;;;;;;;4.95;1.88;;;;;;;;;;4963040;28;20045;-73
2023/07/04 08:14:03;;;;;;;3.20;1.90;;;;;;;;;;4963620;28;20689;-73
2023/07/04 08:16:42;;;;;;;3.58;1.77;;;;;;;;;;4965040;28;20039;-73
2023/07/04 08:19:07;;;;;;;4.90;2.03;;;;;;;;;;4967686;28;20094;-73
2023/07/04 08:21:33;;;;;;;4.97;2.30;;;;;;;;;;4969663;28;20035;-73
2023/07/04 08:23:58;;;;;;;4.25;1.98;;;;;;;;;;4968459;28;20531;-73
2023/07/04 08:26:25;;;;;;;4.35;2.05;;;;;;;;;;4967713;28;20031;-73
2023/07/04 08:28:56;;;;;;;3.78;2.47;;;;;;;;;;4966830;28;20155;-73
2023/07/04 08:31:23;;;;;;;3.42;1.85;;;;;;;;;;4970170;28;20029;-73
2023/07/04 08:33:49;;;;;;;5.13;2.42;;;;;;;;;;4964572;28;20097;-73
2023/07/04 08:36:16;;;;;;;3.17;2.00;;;;;;;;;;4966165;28;20027;-73
2023/07/04 08:38:43;;;;;;;3.55;2.30;;;;;;;;;;4967140;28;20031;-73
2023/07/04 08:41:25;;;;;;;5.07;2.20;;;;;;;;;;4964795;28;20018;-73
2023/07/04 08:43:57;;;;;;;4.70;2.58;;;;;;;;;;4967690;28;20101;-73
2023/07/04 08:46:24;;;;;;;5.05;2.15;;;;;;;;;;4966789;28;20668;-73
2023/07/04 08:48:50;;;;;;;3.85;1.90;;;;;;;;;;4964928;28;20057;-74
2023/07/04 08:51:27;;;;;;;3.42;1.98;;;;;;;;;;4964333;28;20738;-73
2023/07/04 08:53:57;;;;;;;5.95;2.20;;;;;;;;;;4964135;28;20066;-73
2023/07/04 08:56:36;;;;;;;6.75;2.28;;;;;;;;;;4965409;28;20034;-73
2023/07/04 08:59:05;;;;;;;4.95;2.00;;;;;;;;;;4965328;28;20739;-73
2023/07/04 09:01:51;;;;;;;4.45;2.10;;;;;;;;;;4966840;28;20070;-73
2023/07/04 09:04:30;;;;;;;9.05;2.55;;;;;;;;;;4966974;28;20125;-73
2023/07/04 09:07:03;;;;;;;5.45;2.00;;;;;;;;;;4965976;28;20105;-73
2023/07/04 09:09:35;;;;;;;3.88;2.10;;;;;;;;;;4965496;28;20023;-73
2023/07/04 09:12:02;;;;;;;5.68;2.28;;;;;;;;;;4965368;28;20026;-73
2023/07/04 09:14:48;;;;;;;6.38;2.50;;;;;;;;;;4966826;28;20399;-73
2023/07/04 09:17:28;;;;;;;4.60;2.60;;;;;;;;;;4966830;28;20042;-73
2023/07/04 09:19:55;;;;;;;6.90;2.30;;;;;;;;;;4966580;28;20388;-73
2023/07/04 09:22:21;;;;;;;5.22;2.40;;;;;;;;;;4963044;28;20119;-73
2023/07/04 09:24:48;;;;;;;3.38;1.65;;;;;;;;;;4968413;28;20101;-74
2023/07/04 09:27:15;;;;;;;6.13;2.40;;;;;;;;;;4965085;28;20086;-73
2023/07/04 09:29:40;;;;;;;4.65;2.50;;;;;;;;;;4968098;28;20065;-74
2023/07/04 09:32:07;;;;;;;6.05;2.60;;;;;;;;;;4966549;28;20496;-73
2023/07/04 09:34:51;;;;;;;5.00;2.63;;;;;;;;;;4967996;28;20053;-74
2023/07/04 09:37:21;;;;;;;4.03;2.35;;;;;;;;;;4964884;28;20093;-73
2023/07/04 09:39:55;;;;;;;4.97;2.17;;;;;;;;;;4968514;28;20030;-73
2023/07/04 09:42:40;;;;;;;2.67;2.10;;;;;;;;;;4967731;28;20403;-73
2023/07/04 09:45:13;;;;;;;4.72;2.83;;;;;;;;;;4962775;28;20022;-74
2023/07/04 09:47:44;;;;;;;4.38;2.65;;;;;;;;;;4967057;28;20015;-74
2023/07/04 09:50:15;;;;;;;3.60;2.38;;;;;;;;;;4959101;28;20030;-74
2023/07/04 09:52:41;;;;;;;5.55;2.45;;;;;;;;;;4970515;28;20023;-74
2023/07/04 09:55:16;;;;;;;3.15;2.28;;;;;;;;;;4971512;28;20033;-74
2023/07/04 09:57:42;;;;;;;4.72;3.00;;;;;;;;;;4974131;28;20037;-73
2023/07/04 10:00:24;;;;;;;4.63;2.80;;;;;;;;;;4971706;28;20027;-74
2023/07/04 10:02:52;;;;;;;3.35;2.20;;;;;;;;;;4970321;28;20038;-73
2023/07/04 10:05:27;;;;;;;4.38;2.28;;;;;;;;;;4971990;28;20493;-74
2023/07/04 10:08:05;;;;;;;4.65;2.70;;;;;;;;;;4969239;28;20041;-74
2023/07/04 10:10:52;;;;;;;4.25;2.45;;;;;;;;;;4968833;28;20031;-74
2023/07/04 10:13:38;;;;;;;4.35;2.70;;;;;;;;;;4970306;28;20026;-73
2023/07/04 10:16:23;;;;;;;5.63;2.50;;;;;;;;;;4977473;28;20027;-73
2023/07/04 10:18:48;;;;;;;3.97;2.17;;;;;;;;;;4967601;28;20026;-74
2023/07/04 10:21:14;;;;;;;4.50;2.55;;;;;;;;;;4965912;28;20029;-74
2023/07/04 10:23:39;;;;;;;4.43;2.55;;;;;;;;;;4970987;28;20050;-74
2023/07/04 10:26:05;;;;;;;2.97;2.30;;;;;;;;;;4970967;28;20050;-73
2023/07/04 10:28:33;;;;;;;4.55;2.58;;;;;;;;;;4968480;28;20658;-74
2023/07/04 10:31:06;;;;;;;4.80;2.53;;;;;;;;;;4971365;28;20066;-74
2023/07/04 10:33:53;;;;;;;6.95;2.97;;;;;;;;;;4970590;28;20030;-74
2023/07/04 10:36:28;;;;;;;3.78;2.40;;;;;;;;;;4968709;28;20030;-74
2023/07/04 10:38:58;;;;;;;4.47;2.90;;;;;;;;;;4967459;28;20034;-74
2023/07/04 10:41:33;;;;;;;5.22;2.50;;;;;;;;;;4969413;28;20499;-74
2023/07/04 10:44:02;;;;;;;5.05;2.65;;;;;;;;;;4967109;28;20123;-74
2023/07/04 10:46:29;;;;;;;7.30;3.17;;;;;;;;;;4969031;28;20023;-74
2023/07/04 10:49:04;;;;;;;4.60;3.13;;;;;;;;;;4970709;28;20862;-74
2023/07/04 10:51:33;;;;;;;3.08;2.08;;;;;;;;;;4966203;28;20038;-74
2023/07/04 10:53:58;;;;;;;4.75;2.90;;;;;;;;;;4969878;28;20512;-74
2023/07/04 10:56:32;;;;;;;3.70;2.53;;;;;;;;;;4971103;28;20149;-74
2023/07/04 10:59:05;;;;;;;6.50;3.22;;;;;;;;;;4973116;28;20023;-74
2023/07/04 11:01:38;;;;;;;4.57;2.78;;;;;;;;;;4970554;28;20031;-74
2023/07/04 11:04:26;;;;;;;4.70;2.75;;;;;;;;;;4969802;28;20026;-74
2023/07/04 11:06:58;;;;;;;3.97;2.75;;;;;;;;;;4973048;28;20034;-74
2023/07/04 11:09:25;;;;;;;4.78;2.45;;;;;;;;;;4967640;28;20034;-74
2023/07/04 11:11:51;;;;;;;4.57;3.03;;;;;;;;;;4972915;28;20023;-74
2023/07/04 11:14:26;;;;;;;6.63;3.40;;;;;;;;;;4965575;28;20080;-74
2023/07/04 11:16:55;;;;;;;3.97;2.88;;;;;;;;;;4966847;28;20031;-74
2023/07/04 11:19:26;;;;;;;5.25;3.15;;;;;;;;;;4971127;28;20076;-74
2023/07/04 11:22:10;;;;;;;4.47;3.53;;;;;;;;;;4968444;28;20775;-74
2023/07/04 11:24:37;;;;;;;6.32;4.22;;;;;;;;;;4967771;28;20179;-74
2023/07/04 11:27:09;;;;;;;8.30;4.32;;;;;;;;;;4968207;28;20037;-74
2023/07/04 11:30:06;;;;;;;6.15;4.32;;;;;;;;;;4978395;23;20030;-78
2023/07/04 11:32:37;;;;;;;6.93;3.40;;;;;;;;;;4924205;29;20106;-77
2023/07/04 11:35:13;;;;;;;5.05;3.78;;;;;;;;;;4926698;29;20633;-77
2023/07/04 11:37:48;;;;;;;4.28;2.70;;;;;;;;;;4943265;28;20027;-77
2023/07/04 11:40:25;;;;;;;4.13;3.10;;;;;;;;;;4932470;28;20027;-77
2023/07/04 11:42:58;;;;;;;8.25;4.35;;;;;;;;;;4935820;29;20079;-77
2023/07/04 11:45:26;;;;;;;6.03;3.80;;;;;;;;;;4924630;28;20043;-77
2023/07/04 11:47:55;;;;;;;4.30;2.92;;;;;;;;;;4928115;29;20140;-77
2023/07/04 11:50:34;;;;;;;5.20;3.35;;;;;;;;;;4930806;29;20031;-77
2023/07/04 11:53:03;;;;;;;4.77;3.57;;;;;;;;;;4928896;29;20392;-77
2023/07/04 11:55:34;;;;;;;4.75;2.97;;;;;;;;;;4931267;29;20038;-77
2023/07/04 11:58:08;;;;;;;5.28;3.78;;;;;;;;;;4927037;29;20396;-77
2023/07/04 12:00:39;;;;;;;5.90;3.88;;;;;;;;;;4929726;29;20110;-78
2023/07/04 12:03:16;;;;;;;5.53;3.75;;;;;;;;;;4927972;29;20083;-77
2023/07/04 12:05:49;;;;;;;5.93;3.85;;;;;;;;;;4922421;29;20122;-77
2023/07/04 12:08:22;;;;;;;6.18;3.70;;;;;;;;;;4930627;29;20050;-78
2023/07/04 12:10:48;;;;;;;6.68;4.03;;;;;;;;;;4943608;28;20464;-77
2023/07/04 12:13:19;;;;;;;5.97;3.97;;;;;;;;;;4939955;29;20019;-77
2023/07/04 12:15:49;;;;;;;6.65;3.85;;;;;;;;;;4943433;29;20015;-75
2023/07/04 12:18:21;;;;;;;6.85;3.97;;;;;;;;;;4954341;28;20582;-77
2023/07/04 12:20:47;;;;;;;6.72;3.88;;;;;;;;;;4933710;29;20101;-77
2023/07/04 12:23:12;;;;;;;4.40;3.10;;;;;;;;;;4938767;29;20559;-78
2023/07/04 12:25:41;;;;;;;6.10;3.40;;;;;;;;;;4937939;29;20039;-77
2023/07/04 12:28:09;;;;;;;5.85;4.00;;;;;;;;;;4939329;29;20047;-75
2023/07/04 12:30:38;;;;;;;5.50;3.70;;;;;;;;;;4957363;28;20027;-78
2023/07/04 12:33:04;;;;;;;5.60;3.45;;;;;;;;;;4934833;29;20019;-77
2023/07/04 12:35:31;;;;;;;6.68;3.30;;;;;;;;;;4941513;29;20030;-77
2023/07/04 12:37:58;;;;;;;5.38;3.40;;;;;;;;;;4939475;29;20216;-77
2023/07/04 12:40:29;;;;;;;6.13;3.63;;;;;;;;;;4938949;29;20492;-77
2023/07/04 12:42:56;;;;;;;6.32;3.72;;;;;;;;;;4932882;29;20079;-78
2023/07/04 12:45:27;;;;;;;7.18;3.25;;;;;;;;;;4930154;29;20432;-78
2023/07/04 12:47:57;;;;;;;5.22;3.20;;;;;;;;;;4927044;29;20347;-78
2023/07/04 12:50:23;;;;;;;4.70;2.85;;;;;;;;;;4927187;29;20476;-77
2023/07/04 12:52:50;;;;;;;3.78;3.10;;;;;;;;;;4929504;28;20036;-78
2023/07/04 12:55:31;;;;;;;5.95;3.58;;;;;;;;;;4932680;29;20027;-77
2023/07/04 12:57:57;;;;;;;5.70;3.72;;;;;;;;;;4931599;29;20021;-77
2023/07/04 13:00:36;;;;;;;5.40;4.18;;;;;;;;;;4934289;29;20028;-78
2023/07/04 13:03:10;;;;;;;6.53;4.95;;;;;;;;;;4924602;29;20054;-77
2023/07/04 13:05:40;;;;;;;7.95;4.93;;;;;;;;;;4926484;29;20039;-77
2023/07/04 13:08:14;;;;;;;6.95;4.75;;;;;;;;;;4930739;29;20107;-77
2023/07/04 13:10:40;;;;;;;7.70;4.28;;;;;;;;;;4925937;29;20396;-77
2023/07/04 13:13:36;;;;;;;6.63;4.63;;;;;;;;;;4932271;29;20016;-76
2023/07/04 13:16:28;;;;;;;6.82;4.75;;;;;;;;;;4936297;29;20038;-77
2023/07/04 13:18:54;;;;;;;7.60;5.05;;;;;;;;;;4935069;29;20555;-78
2023/07/04 13:21:27;;;;;;;6.35;4.90;;;;;;;;;;4927878;29;20036;-78
2023/07/04 13:23:53;;;;;;;8.13;5.28;;;;;;;;;;4930608;29;20484;-76
2023/07/04 13:26:22;;;;;;;6.57;4.72;;;;;;;;;;4931231;29;20128;-78
2023/07/04 13:28:52;;;;;;;7.03;5.20;;;;;;;;;;4929428;29;20038;-79
2023/07/04 13:31:19;;;;;;;;;;;;;;;;;;4928346;29;20089;-77
2023/07/04 13:33:45;;;;;;;6.53;4.93;;;;;;;;;;4935068;29;19921;-77
2023/07/04 13:36:20;;;;;;;5.05;4.50;;;;;;;;;;4930520;29;20040;-78
2023/07/04 13:38:47;;;;;;;6.97;4.80;;;;;;;;;;4930382;29;20028;-77
2023/07/04 13:41:14;;;;;;;6.72;4.05;;;;;;;;;;4930460;29;20031;-77
2023/07/04 13:43:40;;;;;;;6.78;5.18;;;;;;;;;;4932881;29;20293;-77
2023/07/04 13:46:06;;;;;;;5.50;4.90;;;;;;;;;;4930552;29;20059;-78
2023/07/04 13:48:32;;;;;;;7.82;5.25;;;;;;;;;;4931869;29;20027;-79
2023/07/04 13:50:59;;;;;;;6.10;4.28;;;;;;;;;;4931309;29;20023;-77
2023/07/04 13:53:25;;;;;;;4.82;3.67;;;;;;;;;;4930555;29;20055;-77
2023/07/04 13:55:51;;;;;;;6.30;5.10;;;;;;;;;;4948933;28;20040;-77
2023/07/04 13:58:19;;;;;;;4.75;3.88;;;;;;;;;;4934995;29;20028;-77
2023/07/04 14:00:44;;;;;;;6.03;5.07;;;;;;;;;;4936559;29;20045;-77
2023/07/04 14:03:10;;;;;;;8.48;5.63;;;;;;;;;;4929880;29;20430;-77
2023/07/04 14:05:40;;;;;;;4.57;3.45;;;;;;;;;;4921930;29;20095;-77
2023/07/04 14:08:06;;;;;;;5.57;5.05;;;;;;;;;;4928229;29;20397;-77
2023/07/04 14:10:32;;;;;;;7.05;5.32;;;;;;;;;;4923820;29;20023;-77
2023/07/04 14:12:59;;;;;;;6.45;5.05;;;;;;;;;;4931000;29;20033;-77
2023/07/04 14:15:24;;;;;;;5.10;4.60;;;;;;;;;;4931164;29;20036;-77
2023/07/04 14:17:50;;;;;;;6.93;5.30;;;;;;;;;;4931582;29;20043;-77
2023/07/04 14:20:16;;;;;;;7.82;5.05;;;;;;;;;;4931026;29;20118;-77
2023/07/04 14:22:41;;;;;;;6.18;4.82;;;;;;;;;;4932826;29;20568;-77
2023/07/04 14:25:07;;;;;;;6.32;4.93;;;;;;;;;;4931049;29;20061;-77
2023/07/04 14:27:36;;;;;;;8.05;5.22;;;;;;;;;;4930678;29;20038;-77
2023/07/04 14:30:03;;;;;;;6.75;5.57;;;;;;;;;;4929773;29;20032;-77
2023/07/04 14:32:29;;;;;;;7.35;5.32;;;;;;;;;;4931770;29;20114;-77
2023/07/04 14:34:55;;;;;;;7.30;5.47;;;;;;;;;;4931991;29;20110;-77
2023/07/04 14:37:21;;;;;;;5.78;4.90;;;;;;;;;;4929817;28;21657;-77
2023/07/04 14:39:51;;;;;;;6.50;4.28;;;;;;;;;;4935629;28;20054;-77
2023/07/04 14:42:17;;;;;;;9.02;5.80;;;;;;;;;;4932312;29;20023;-77
2023/07/04 14:44:44;;;;;;;5.65;4.93;;;;;;;;;;4931190;29;20027;-77
2023/07/04 14:47:10;;;;;;;7.35;5.50;;;;;;;;;;4933946;29;20034;-77
2023/07/04 14:49:36;;;;;;;7.00;5.68;;;;;;;;;;4932898;29;20051;-77
2023/07/04 14:52:03;;;;;;;6.72;4.82;;;;;;;;;;4926835;29;20038;-77